DAL25 TGPY-TNCC
Flight info
| Callsign | DAL25 |
|---|---|
| Flight time | 1h 10m |
| Altitude | 36000 |
| Route | KAPAM DCT VAMEL DCT PJB DCT D114K |
| Aircraft | A319/M-SDE3FGHIRWY/LB1 |
Departure
| Time | 2026-05-05 23:22 |
|---|---|
| Airport | Maurice Bishop International Airport (TGPY) |
Arrival
| Time | 2026-05-06 00:33 |
|---|---|
| Airport | Hato International Airport (TNCC) |
| Time | Latitude | Longitude | Altitude | Speed | Heading |
|---|---|---|---|---|---|
| 2026-05-05 22:58 | 12.00663 | -61.78619 | 29 ft | 0 kts | 4° |
| 2026-05-05 23:10 | 12.00649 | -61.78620 | 28 ft | 3 kts | 4° |
| 2026-05-05 23:10 | 12.00632 | -61.78623 | 28 ft | 3 kts | 59° |
| 2026-05-05 23:11 | 12.00629 | -61.78641 | 27 ft | 3 kts | 97° |
| 2026-05-05 23:11 | 12.00630 | -61.78651 | 27 ft | 0 kts | 97° |
| 2026-05-05 23:14 | 12.00630 | -61.78650 | 27 ft | 1 kts | 97° |
| 2026-05-05 23:14 | 12.00629 | -61.78639 | 27 ft | 2 kts | 97° |
| 2026-05-05 23:14 | 12.00623 | -61.78617 | 27 ft | 4 kts | 110° |
| 2026-05-05 23:15 | 12.00599 | -61.78603 | 27 ft | 5 kts | 164° |
| 2026-05-05 23:15 | 12.00560 | -61.78601 | 27 ft | 7 kts | 181° |
| 2026-05-05 23:15 | 12.00509 | -61.78601 | 27 ft | 8 kts | 180° |
| 2026-05-05 23:15 | 12.00493 | -61.78601 | 28 ft | 0 kts | 180° |
| 2026-05-05 23:18 | 12.00475 | -61.78601 | 28 ft | 5 kts | 180° |
| 2026-05-05 23:18 | 12.00425 | -61.78608 | 29 ft | 8 kts | 213° |
| 2026-05-05 23:18 | 12.00409 | -61.78673 | 30 ft | 12 kts | 269° |
| 2026-05-05 23:19 | 12.00410 | -61.78778 | 30 ft | 18 kts | 270° |
| 2026-05-05 23:19 | 12.00410 | -61.78919 | 29 ft | 20 kts | 270° |
| 2026-05-05 23:19 | 12.00411 | -61.79057 | 29 ft | 18 kts | 270° |
| 2026-05-05 23:19 | 12.00413 | -61.79183 | 27 ft | 17 kts | 270° |
| 2026-05-05 23:20 | 12.00414 | -61.79305 | 25 ft | 17 kts | 269° |
| 2026-05-05 23:20 | 12.00413 | -61.79429 | 22 ft | 17 kts | 270° |
| 2026-05-05 23:20 | 12.00414 | -61.79550 | 20 ft | 17 kts | 270° |
| 2026-05-05 23:20 | 12.00415 | -61.79666 | 18 ft | 16 kts | 270° |
| 2026-05-05 23:21 | 12.00416 | -61.79779 | 16 ft | 16 kts | 275° |
| 2026-05-05 23:21 | 12.00451 | -61.79838 | 16 ft | 7 kts | 296° |
| 2026-05-05 23:21 | 12.00416 | -61.79855 | 14 ft | 10 kts | 133° |
| 2026-05-05 23:21 | 12.00414 | -61.79769 | 16 ft | 14 kts | 91° |
| 2026-05-05 23:22 | 12.00415 | -61.79589 | 19 ft | 54 kts | 90° |
| 2026-05-05 23:22 | 12.00409 | -61.78945 | 29 ft | 124 kts | 90° |
| 2026-05-05 23:22 | 12.00401 | -61.77918 | 327 ft | 152 kts | 92° |
| 2026-05-05 23:22 | 12.00363 | -61.76829 | 1040 ft | 154 kts | 94° |
| 2026-05-05 23:23 | 11.99934 | -61.75835 | 1715 ft | 161 kts | 134° |
| 2026-05-05 23:23 | 11.98867 | -61.75425 | 2396 ft | 175 kts | 176° |
| 2026-05-05 23:23 | 11.97672 | -61.75858 | 2912 ft | 200 kts | 213° |
| 2026-05-05 23:23 | 11.96882 | -61.77152 | 3248 ft | 237 kts | 258° |
| 2026-05-05 23:24 | 11.96877 | -61.78924 | 3732 ft | 263 kts | 276° |
| 2026-05-05 23:24 | 11.97205 | -61.80848 | 4331 ft | 284 kts | 282° |
| 2026-05-05 23:24 | 11.97657 | -61.82841 | 5242 ft | 291 kts | 283° |
| 2026-05-05 23:24 | 11.98131 | -61.84877 | 6218 ft | 295 kts | 283° |
| 2026-05-05 23:25 | 11.98581 | -61.86914 | 7123 ft | 299 kts | 282° |
| 2026-05-05 23:25 | 11.99015 | -61.89009 | 8002 ft | 304 kts | 281° |
| 2026-05-05 23:25 | 11.99431 | -61.91143 | 8875 ft | 308 kts | 281° |
| 2026-05-05 23:25 | 11.99835 | -61.93308 | 9741 ft | 313 kts | 281° |
| 2026-05-05 23:26 | 12.00240 | -61.95532 | 10287 ft | 328 kts | 281° |
| 2026-05-05 23:26 | 12.00537 | -61.97918 | 10656 ft | 347 kts | 271° |
| 2026-05-05 23:26 | 12.00585 | -62.00413 | 11284 ft | 355 kts | 271° |
| 2026-05-05 23:26 | 12.00645 | -62.02954 | 11997 ft | 360 kts | 272° |
| 2026-05-05 23:27 | 12.00716 | -62.05525 | 12715 ft | 365 kts | 272° |
| 2026-05-05 23:27 | 12.00791 | -62.08134 | 13423 ft | 370 kts | 272° |
| 2026-05-05 23:27 | 12.00868 | -62.10775 | 14106 ft | 374 kts | 272° |
| 2026-05-05 23:27 | 12.00944 | -62.13438 | 14768 ft | 376 kts | 272° |
| 2026-05-05 23:28 | 12.01018 | -62.16128 | 15492 ft | 377 kts | 272° |
| 2026-05-05 23:28 | 12.01090 | -62.18805 | 16212 ft | 378 kts | 272° |
| 2026-05-05 23:28 | 12.01159 | -62.21489 | 16947 ft | 378 kts | 273° |
| 2026-05-05 23:28 | 12.01227 | -62.24181 | 17641 ft | 380 kts | 273° |
| 2026-05-05 23:29 | 12.01295 | -62.26849 | 18348 ft | 381 kts | 274° |
| 2026-05-05 23:29 | 12.01367 | -62.29565 | 18958 ft | 383 kts | 274° |
| 2026-05-05 23:29 | 12.01442 | -62.32289 | 19564 ft | 385 kts | 274° |
| 2026-05-05 23:29 | 12.01517 | -62.35027 | 20164 ft | 386 kts | 273° |
| 2026-05-05 23:30 | 12.01592 | -62.37778 | 20751 ft | 389 kts | 273° |
| 2026-05-05 23:30 | 12.01668 | -62.40548 | 21328 ft | 391 kts | 272° |
| 2026-05-05 23:30 | 12.01741 | -62.43333 | 21902 ft | 393 kts | 272° |
| 2026-05-05 23:30 | 12.01810 | -62.46137 | 22477 ft | 396 kts | 271° |
| 2026-05-05 23:31 | 12.01878 | -62.48957 | 23040 ft | 398 kts | 271° |
| 2026-05-05 23:31 | 12.01947 | -62.51796 | 23575 ft | 402 kts | 271° |
| 2026-05-05 23:31 | 12.02021 | -62.54651 | 24106 ft | 402 kts | 271° |
| 2026-05-05 23:31 | 12.02098 | -62.57506 | 24564 ft | 403 kts | 271° |
| 2026-05-05 23:32 | 12.02172 | -62.60379 | 25007 ft | 406 kts | 271° |
| 2026-05-05 23:32 | 12.02245 | -62.63274 | 25410 ft | 409 kts | 271° |
| 2026-05-05 23:32 | 12.02318 | -62.66189 | 25798 ft | 412 kts | 271° |
| 2026-05-05 23:32 | 12.02394 | -62.69125 | 26202 ft | 415 kts | 271° |
| 2026-05-05 23:33 | 12.02471 | -62.72079 | 26609 ft | 417 kts | 271° |
| 2026-05-05 23:33 | 12.02546 | -62.75053 | 27025 ft | 419 kts | 271° |
| 2026-05-05 23:33 | 12.02618 | -62.78039 | 27386 ft | 422 kts | 271° |
| 2026-05-05 23:33 | 12.02688 | -62.81048 | 27741 ft | 426 kts | 271° |
| 2026-05-05 23:34 | 12.02760 | -62.84086 | 28095 ft | 428 kts | 271° |
| 2026-05-05 23:34 | 12.02833 | -62.87139 | 28445 ft | 431 kts | 272° |
| 2026-05-05 23:34 | 12.02906 | -62.90207 | 28833 ft | 433 kts | 271° |
| 2026-05-05 23:34 | 12.02979 | -62.93291 | 29173 ft | 436 kts | 272° |
| 2026-05-05 23:35 | 12.03054 | -62.96403 | 29500 ft | 439 kts | 272° |
| 2026-05-05 23:35 | 12.03129 | -62.99530 | 29867 ft | 441 kts | 272° |
| 2026-05-05 23:35 | 12.03206 | -63.02668 | 30200 ft | 444 kts | 272° |
| 2026-05-05 23:35 | 12.03283 | -63.05831 | 30482 ft | 446 kts | 272° |
| 2026-05-05 23:36 | 12.03357 | -63.09009 | 30754 ft | 449 kts | 272° |
| 2026-05-05 23:36 | 12.03427 | -63.12212 | 31021 ft | 452 kts | 272° |
| 2026-05-05 23:36 | 12.03501 | -63.15430 | 31300 ft | 454 kts | 272° |
| 2026-05-05 23:36 | 12.03574 | -63.18621 | 31562 ft | 456 kts | 272° |
| 2026-05-05 23:37 | 12.03649 | -63.21879 | 31843 ft | 458 kts | 272° |
| 2026-05-05 23:37 | 12.03726 | -63.25131 | 32223 ft | 458 kts | 272° |
| 2026-05-05 23:37 | 12.03802 | -63.28383 | 32606 ft | 458 kts | 272° |
| 2026-05-05 23:37 | 12.03879 | -63.31633 | 32986 ft | 458 kts | 272° |
| 2026-05-05 23:38 | 12.03954 | -63.34883 | 33375 ft | 458 kts | 272° |
| 2026-05-05 23:38 | 12.04025 | -63.38132 | 33768 ft | 457 kts | 272° |
| 2026-05-05 23:38 | 12.04096 | -63.41379 | 34127 ft | 457 kts | 272° |
| 2026-05-05 23:38 | 12.04168 | -63.44624 | 34454 ft | 457 kts | 272° |
| 2026-05-05 23:39 | 12.04239 | -63.47863 | 34810 ft | 455 kts | 272° |
| 2026-05-05 23:39 | 12.04310 | -63.51092 | 35182 ft | 453 kts | 271° |
| 2026-05-05 23:39 | 12.04379 | -63.54305 | 35552 ft | 452 kts | 272° |
| 2026-05-05 23:39 | 12.04448 | -63.57507 | 35892 ft | 451 kts | 272° |
| 2026-05-05 23:40 | 12.04519 | -63.60709 | 36003 ft | 449 kts | 272° |
| 2026-05-05 23:40 | 12.04588 | -63.63866 | 36026 ft | 441 kts | 271° |
| 2026-05-05 23:40 | 12.04728 | -63.70093 | 36025 ft | 437 kts | 271° |
| 2026-05-05 23:41 | 12.04861 | -63.76295 | 36018 ft | 436 kts | 271° |
| 2026-05-05 23:41 | 12.04985 | -63.82485 | 36025 ft | 436 kts | 271° |
| 2026-05-05 23:42 | 12.05114 | -63.88671 | 36025 ft | 435 kts | 272° |
| 2026-05-05 23:42 | 12.05245 | -63.94857 | 36023 ft | 435 kts | 271° |
| 2026-05-05 23:43 | 12.05372 | -64.01045 | 36021 ft | 435 kts | 271° |
| 2026-05-05 23:43 | 12.05494 | -64.07233 | 36019 ft | 435 kts | 272° |
| 2026-05-05 23:44 | 12.05622 | -64.13411 | 36021 ft | 435 kts | 272° |
| 2026-05-05 23:44 | 12.05745 | -64.19591 | 36028 ft | 435 kts | 271° |
| 2026-05-05 23:45 | 12.05860 | -64.25773 | 36029 ft | 435 kts | 272° |
| 2026-05-05 23:45 | 12.05978 | -64.31963 | 36031 ft | 435 kts | 272° |
| 2026-05-05 23:46 | 12.06093 | -64.38104 | 36025 ft | 435 kts | 271° |
| 2026-05-05 23:46 | 12.06209 | -64.44289 | 36027 ft | 434 kts | 272° |
| 2026-05-05 23:47 | 12.06321 | -64.50471 | 36031 ft | 434 kts | 271° |
| 2026-05-05 23:47 | 12.06438 | -64.56599 | 36031 ft | 434 kts | 272° |
| 2026-05-05 23:48 | 12.06552 | -64.62765 | 36027 ft | 434 kts | 271° |
| 2026-05-05 23:48 | 12.06661 | -64.68930 | 36025 ft | 434 kts | 272° |
| 2026-05-05 23:49 | 12.06771 | -64.75092 | 36026 ft | 433 kts | 271° |
| 2026-05-05 23:49 | 12.06877 | -64.81245 | 36023 ft | 433 kts | 271° |
| 2026-05-05 23:50 | 12.06984 | -64.87399 | 36022 ft | 433 kts | 271° |
| 2026-05-05 23:50 | 12.07083 | -64.93552 | 36022 ft | 433 kts | 271° |
| 2026-05-05 23:51 | 12.07165 | -64.98676 | 36017 ft | 433 kts | 271° |
| 2026-05-05 23:51 | 12.07269 | -65.04829 | 36027 ft | 433 kts | 271° |
| 2026-05-05 23:52 | 12.07369 | -65.10977 | 36025 ft | 433 kts | 271° |
| 2026-05-05 23:52 | 12.07475 | -65.17137 | 36027 ft | 432 kts | 271° |
| 2026-05-05 23:53 | 12.07581 | -65.23241 | 36026 ft | 432 kts | 271° |
| 2026-05-05 23:53 | 12.07681 | -65.29391 | 36026 ft | 432 kts | 271° |
| 2026-05-05 23:54 | 12.07770 | -65.35530 | 36034 ft | 432 kts | 271° |
| 2026-05-05 23:54 | 12.07851 | -65.41669 | 36035 ft | 432 kts | 271° |
| 2026-05-05 23:55 | 12.07943 | -65.47795 | 36038 ft | 431 kts | 271° |
| 2026-05-05 23:55 | 12.08039 | -65.53923 | 36038 ft | 431 kts | 271° |
| 2026-05-05 23:56 | 12.08135 | -65.60041 | 36039 ft | 430 kts | 271° |
| 2026-05-05 23:56 | 12.08226 | -65.66150 | 36032 ft | 430 kts | 271° |
| 2026-05-05 23:57 | 12.08310 | -65.72262 | 36031 ft | 430 kts | 271° |
| 2026-05-05 23:57 | 12.08392 | -65.78358 | 36029 ft | 429 kts | 271° |
| 2026-05-05 23:58 | 12.08476 | -65.84459 | 36025 ft | 429 kts | 271° |
| 2026-05-05 23:58 | 12.08562 | -65.90548 | 36027 ft | 428 kts | 271° |
| 2026-05-05 23:59 | 12.08643 | -65.96591 | 36024 ft | 428 kts | 271° |
| 2026-05-05 23:59 | 12.08723 | -66.02663 | 36030 ft | 427 kts | 271° |
| 2026-05-06 00:00 | 12.08801 | -66.08726 | 36027 ft | 426 kts | 271° |
| 2026-05-06 00:00 | 12.08879 | -66.14780 | 36023 ft | 426 kts | 271° |
| 2026-05-06 00:01 | 12.08957 | -66.20833 | 36021 ft | 425 kts | 271° |
| 2026-05-06 00:01 | 12.09026 | -66.26870 | 36011 ft | 425 kts | 271° |
| 2026-05-06 00:02 | 12.09101 | -66.32902 | 36022 ft | 424 kts | 271° |
| 2026-05-06 00:02 | 12.09173 | -66.38920 | 36016 ft | 423 kts | 271° |
| 2026-05-06 00:03 | 12.09245 | -66.44936 | 36016 ft | 423 kts | 271° |
| 2026-05-06 00:03 | 12.09319 | -66.50944 | 36013 ft | 423 kts | 271° |
| 2026-05-06 00:04 | 12.09443 | -66.56909 | 36008 ft | 423 kts | 271° |
| 2026-05-06 00:04 | 12.09609 | -66.62911 | 36023 ft | 422 kts | 272° |
| 2026-05-06 00:05 | 12.09844 | -66.71907 | 36021 ft | 422 kts | 271° |
| 2026-05-06 00:06 | 12.09989 | -66.77904 | 36010 ft | 421 kts | 271° |
| 2026-05-06 00:06 | 12.10132 | -66.83896 | 36001 ft | 422 kts | 271° |
| 2026-05-06 00:07 | 12.10278 | -66.89896 | 36007 ft | 422 kts | 272° |
| 2026-05-06 00:07 | 12.10427 | -66.95891 | 36008 ft | 422 kts | 271° |
| 2026-05-06 00:08 | 12.10570 | -67.01877 | 36006 ft | 421 kts | 271° |
| 2026-05-06 00:08 | 12.10702 | -67.07814 | 36007 ft | 420 kts | 271° |
| 2026-05-06 00:09 | 12.10839 | -67.13798 | 35994 ft | 420 kts | 271° |
| 2026-05-06 00:09 | 12.10975 | -67.19774 | 36004 ft | 420 kts | 271° |
| 2026-05-06 00:10 | 12.11111 | -67.25742 | 36002 ft | 420 kts | 272° |
| 2026-05-06 00:10 | 12.11242 | -67.31715 | 36002 ft | 420 kts | 272° |
| 2026-05-06 00:11 | 12.11375 | -67.37676 | 36008 ft | 419 kts | 272° |
| 2026-05-06 00:11 | 12.11510 | -67.43639 | 35995 ft | 420 kts | 272° |
| 2026-05-06 00:12 | 12.11645 | -67.49597 | 35883 ft | 420 kts | 272° |
| 2026-05-06 00:12 | 12.11708 | -67.52598 | 35233 ft | 423 kts | 271° |
| 2026-05-06 00:12 | 12.11769 | -67.55592 | 34731 ft | 421 kts | 271° |
| 2026-05-06 00:12 | 12.11830 | -67.58578 | 34210 ft | 419 kts | 271° |
| 2026-05-06 00:13 | 12.11894 | -67.61550 | 33666 ft | 418 kts | 271° |
| 2026-05-06 00:13 | 12.11956 | -67.64474 | 33163 ft | 415 kts | 271° |
| 2026-05-06 00:13 | 12.12018 | -67.67417 | 32663 ft | 412 kts | 271° |
| 2026-05-06 00:13 | 12.12078 | -67.70337 | 32164 ft | 410 kts | 271° |
| 2026-05-06 00:14 | 12.12140 | -67.73236 | 31672 ft | 407 kts | 272° |
| 2026-05-06 00:14 | 12.12203 | -67.76121 | 31187 ft | 405 kts | 272° |
| 2026-05-06 00:14 | 12.12264 | -67.78999 | 30708 ft | 403 kts | 272° |
| 2026-05-06 00:14 | 12.12324 | -67.81858 | 30236 ft | 401 kts | 272° |
| 2026-05-06 00:15 | 12.12382 | -67.84708 | 29730 ft | 400 kts | 272° |
| 2026-05-06 00:15 | 12.12437 | -67.87497 | 29283 ft | 396 kts | 272° |
| 2026-05-06 00:15 | 12.12493 | -67.90300 | 28839 ft | 393 kts | 273° |
| 2026-05-06 00:15 | 12.12547 | -67.93090 | 28406 ft | 390 kts | 273° |
| 2026-05-06 00:16 | 12.12602 | -67.95853 | 27973 ft | 387 kts | 273° |
| 2026-05-06 00:16 | 12.12656 | -67.98598 | 27536 ft | 385 kts | 272° |
| 2026-05-06 00:16 | 12.12710 | -68.01322 | 27109 ft | 382 kts | 273° |
| 2026-05-06 00:16 | 12.12764 | -68.04028 | 26663 ft | 380 kts | 273° |
| 2026-05-06 00:17 | 12.12818 | -68.06717 | 26223 ft | 377 kts | 274° |
| 2026-05-06 00:17 | 12.12870 | -68.09387 | 25774 ft | 375 kts | 273° |
| 2026-05-06 00:17 | 12.12923 | -68.12050 | 25314 ft | 374 kts | 273° |
| 2026-05-06 00:17 | 12.12975 | -68.14698 | 24853 ft | 372 kts | 273° |
| 2026-05-06 00:18 | 12.13024 | -68.17341 | 24372 ft | 372 kts | 274° |
| 2026-05-06 00:18 | 12.13074 | -68.19980 | 23893 ft | 371 kts | 274° |
| 2026-05-06 00:18 | 12.13123 | -68.22614 | 23383 ft | 370 kts | 275° |
| 2026-05-06 00:18 | 12.13172 | -68.25238 | 22868 ft | 368 kts | 274° |
| 2026-05-06 00:19 | 12.13253 | -68.27841 | 22419 ft | 365 kts | 274° |
| 2026-05-06 00:19 | 12.13369 | -68.30414 | 21969 ft | 362 kts | 275° |
| 2026-05-06 00:19 | 12.13503 | -68.32975 | 21529 ft | 359 kts | 276° |
| 2026-05-06 00:19 | 12.13643 | -68.35519 | 21092 ft | 357 kts | 276° |
| 2026-05-06 00:20 | 12.13781 | -68.38026 | 20667 ft | 355 kts | 276° |
| 2026-05-06 00:20 | 12.13913 | -68.40541 | 20242 ft | 354 kts | 275° |
| 2026-05-06 00:20 | 12.14038 | -68.43051 | 19815 ft | 353 kts | 275° |
| 2026-05-06 00:20 | 12.14157 | -68.45556 | 19408 ft | 352 kts | 274° |
| 2026-05-06 00:21 | 12.14271 | -68.48053 | 18986 ft | 352 kts | 274° |
| 2026-05-06 00:21 | 12.14385 | -68.50562 | 18564 ft | 352 kts | 274° |
| 2026-05-06 00:21 | 12.14499 | -68.53062 | 18124 ft | 353 kts | 274° |
| 2026-05-06 00:21 | 12.14611 | -68.55536 | 17690 ft | 352 kts | 273° |
| 2026-05-06 00:22 | 12.14727 | -68.58033 | 17264 ft | 351 kts | 273° |
| 2026-05-06 00:22 | 12.14844 | -68.60527 | 16857 ft | 350 kts | 273° |
| 2026-05-06 00:22 | 12.14959 | -68.63005 | 16455 ft | 349 kts | 273° |
| 2026-05-06 00:22 | 12.15073 | -68.65476 | 16051 ft | 348 kts | 273° |
| 2026-05-06 00:23 | 12.15189 | -68.67947 | 15655 ft | 348 kts | 273° |
| 2026-05-06 00:23 | 12.15305 | -68.70413 | 15255 ft | 348 kts | 272° |
| 2026-05-06 00:23 | 12.15419 | -68.72882 | 14862 ft | 348 kts | 272° |
| 2026-05-06 00:23 | 12.15532 | -68.75359 | 14464 ft | 348 kts | 272° |
| 2026-05-06 00:24 | 12.15644 | -68.77833 | 14071 ft | 348 kts | 272° |
| 2026-05-06 00:24 | 12.15756 | -68.80306 | 13650 ft | 348 kts | 272° |
| 2026-05-06 00:24 | 12.15853 | -68.82778 | 13226 ft | 347 kts | 269° |
| 2026-05-06 00:24 | 12.15689 | -68.85227 | 12811 ft | 345 kts | 264° |
| 2026-05-06 00:25 | 12.15489 | -68.87666 | 12387 ft | 344 kts | 264° |
| 2026-05-06 00:25 | 12.15291 | -68.90098 | 11969 ft | 343 kts | 264° |
| 2026-05-06 00:25 | 12.15097 | -68.92520 | 11538 ft | 341 kts | 264° |
| 2026-05-06 00:25 | 12.14907 | -68.94902 | 11114 ft | 340 kts | 264° |
| 2026-05-06 00:26 | 12.14715 | -68.97310 | 10678 ft | 339 kts | 264° |
| 2026-05-06 00:26 | 12.14524 | -68.99713 | 10256 ft | 338 kts | 263° |
| 2026-05-06 00:26 | 12.14329 | -69.02107 | 9795 ft | 338 kts | 263° |
| 2026-05-06 00:26 | 12.14131 | -69.04495 | 9304 ft | 337 kts | 263° |
| 2026-05-06 00:27 | 12.13935 | -69.06871 | 8844 ft | 334 kts | 263° |
| 2026-05-06 00:27 | 12.13741 | -69.09228 | 8374 ft | 332 kts | 263° |
| 2026-05-06 00:27 | 12.13551 | -69.11571 | 7908 ft | 329 kts | 263° |
| 2026-05-06 00:27 | 12.13545 | -69.13912 | 7410 ft | 331 kts | 279° |
| 2026-05-06 00:28 | 12.14506 | -69.16036 | 6926 ft | 333 kts | 309° |
| 2026-05-06 00:28 | 12.16339 | -69.17446 | 6385 ft | 333 kts | 339° |
| 2026-05-06 00:28 | 12.18578 | -69.17762 | 5946 ft | 323 kts | 9° |
| 2026-05-06 00:28 | 12.20704 | -69.17138 | 5350 ft | 316 kts | 28° |
| 2026-05-06 00:29 | 12.22297 | -69.15768 | 4805 ft | 293 kts | 62° |
| 2026-05-06 00:29 | 12.22874 | -69.13897 | 4455 ft | 267 kts | 89° |
| 2026-05-06 00:29 | 12.22722 | -69.12077 | 4104 ft | 249 kts | 102° |
| 2026-05-06 00:29 | 12.22320 | -69.10403 | 3697 ft | 235 kts | 105° |
| 2026-05-06 00:30 | 12.21888 | -69.08871 | 3304 ft | 214 kts | 105° |
| 2026-05-06 00:30 | 12.21503 | -69.07471 | 2932 ft | 197 kts | 104° |
| 2026-05-06 00:30 | 12.21165 | -69.06164 | 2568 ft | 183 kts | 103° |
| 2026-05-06 00:30 | 12.20874 | -69.04969 | 2291 ft | 165 kts | 102° |
| 2026-05-06 00:31 | 12.20620 | -69.03881 | 1999 ft | 150 kts | 100° |
| 2026-05-06 00:31 | 12.20391 | -69.02888 | 1631 ft | 140 kts | 101° |
| 2026-05-06 00:31 | 12.20156 | -69.01959 | 1325 ft | 129 kts | 101° |
| 2026-05-06 00:31 | 12.19894 | -69.01095 | 1089 ft | 127 kts | 104° |
| 2026-05-06 00:32 | 12.19690 | -69.00214 | 867 ft | 127 kts | 99° |
| 2026-05-06 00:32 | 12.19550 | -68.99321 | 616 ft | 127 kts | 96° |
| 2026-05-06 00:32 | 12.19420 | -68.98430 | 374 ft | 126 kts | 102° |
| 2026-05-06 00:32 | 12.19223 | -68.97570 | 211 ft | 125 kts | 99° |
| 2026-05-06 00:33 | 12.19049 | -68.96720 | 53 ft | 121 kts | 101° |
| 2026-05-06 00:33 | 12.18892 | -68.95975 | 28 ft | 87 kts | 102° |
| 2026-05-06 00:33 | 12.18801 | -68.95546 | 26 ft | 36 kts | 102° |
| 2026-05-06 00:33 | 12.18752 | -68.95415 | 27 ft | 14 kts | 137° |
| 2026-05-06 00:34 | 12.18676 | -68.95412 | 27 ft | 9 kts | 194° |
| 2026-05-06 00:34 | 12.18617 | -68.95447 | 28 ft | 12 kts | 236° |
| 2026-05-06 00:34 | 12.18619 | -68.95543 | 28 ft | 16 kts | 281° |
| 2026-05-06 00:34 | 12.18637 | -68.95632 | 28 ft | 8 kts | 281° |
| 2026-05-06 00:35 | 12.18617 | -68.95660 | 28 ft | 4 kts | 198° |
| 2026-05-06 00:35 | 12.18603 | -68.95668 | 28 ft | 5 kts | 207° |
| 2026-05-06 00:35 | 12.18564 | -68.95678 | 28 ft | 0 kts | 191° |